sensor_id;sensor_type;location;lat;lon;timestamp;pressure;altitude;pressure_sealevel;temperature;humidity
788;BME280;16074;42.708;23.312;2022-10-31T00:00:50;141922.69;;;14.95;57.98
788;BME280;16074;42.708;23.312;2022-10-31T00:03:19;141913.03;;;14.91;57.90
788;BME280;16074;42.708;23.312;2022-10-31T00:05:48;141909.44;;;14.89;58.19
788;BME280;16074;42.708;23.312;2022-10-31T00:08:17;141877.97;;;14.76;58.80
788;BME280;16074;42.708;23.312;2022-10-31T00:10:46;141828.44;;;14.56;59.83
788;BME280;16074;42.708;23.312;2022-10-31T00:13:15;141815.13;;;14.50;59.99
788;BME280;16074;42.708;23.312;2022-10-31T00:15:43;141783.72;;;14.37;60.67
788;BME280;16074;42.708;23.312;2022-10-31T00:18:12;141763.16;;;14.29;61.12
788;BME280;16074;42.708;23.312;2022-10-31T00:20:40;141748.66;;;14.23;61.77
788;BME280;16074;42.708;23.312;2022-10-31T00:23:10;141757.13;;;14.27;61.59
788;BME280;16074;42.708;23.312;2022-10-31T00:25:39;141732.97;;;14.17;62.45
788;BME280;16074;42.708;23.312;2022-10-31T00:28:10;141714.81;;;14.09;62.73
788;BME280;16074;42.708;23.312;2022-10-31T00:30:39;141700.31;;;14.03;63.07
788;BME280;16074;42.708;23.312;2022-10-31T00:33:08;141700.31;;;14.03;63.50
788;BME280;16074;42.708;23.312;2022-10-31T00:35:36;141711.16;;;14.08;63.52
788;BME280;16074;42.708;23.312;2022-10-31T00:38:04;141708.75;;;14.07;63.80
788;BME280;16074;42.708;23.312;2022-10-31T00:40:32;141722.06;;;14.12;63.61
788;BME280;16074;42.708;23.312;2022-10-31T00:43:00;141765.56;;;14.30;63.95
788;BME280;16074;42.708;23.312;2022-10-31T00:45:32;141774.06;;;14.33;63.30
788;BME280;16074;42.708;23.312;2022-10-31T00:48:00;141781.31;;;14.36;63.24
788;BME280;16074;42.708;23.312;2022-10-31T00:50:30;141753.50;;;14.25;63.70
788;BME280;16074;42.708;23.312;2022-10-31T00:52:58;141795.81;;;14.42;62.91
788;BME280;16074;42.708;23.312;2022-10-31T00:55:27;141816.34;;;14.51;62.96
788;BME280;16074;42.708;23.312;2022-10-31T00:57:55;141835.69;;;14.59;62.12
788;BME280;16074;42.708;23.312;2022-10-31T01:00:24;141858.63;;;14.68;61.94
788;BME280;16074;42.708;23.312;2022-10-31T01:02:55;141804.25;;;14.46;62.76
788;BME280;16074;42.708;23.312;2022-10-31T01:05:24;141832.03;;;14.57;62.33
788;BME280;16074;42.708;23.312;2022-10-31T01:07:52;141826.00;;;14.55;62.79
788;BME280;16074;42.708;23.312;2022-10-31T01:10:20;141824.78;;;14.54;62.85
788;BME280;16074;42.708;23.312;2022-10-31T01:12:50;141828.44;;;14.56;63.01
788;BME280;16074;42.708;23.312;2022-10-31T01:15:22;141805.44;;;14.46;63.44
788;BME280;16074;42.708;23.312;2022-10-31T01:17:50;141816.34;;;14.51;63.45
788;BME280;16074;42.708;23.312;2022-10-31T01:20:20;141811.50;;;14.49;63.56
788;BME280;16074;42.708;23.312;2022-10-31T01:22:48;141815.13;;;14.50;63.45
788;BME280;16074;42.708;23.312;2022-10-31T01:25:16;141823.59;;;14.54;63.70
788;BME280;16074;42.708;23.312;2022-10-31T01:27:45;141821.19;;;14.53;63.58
788;BME280;16074;42.708;23.312;2022-10-31T01:30:13;141864.72;;;14.71;63.19
788;BME280;16074;42.708;23.312;2022-10-31T01:32:41;141874.34;;;14.75;62.96
788;BME280;16074;42.708;23.312;2022-10-31T01:35:10;141908.19;;;14.89;62.71
788;BME280;16074;42.708;23.312;2022-10-31T01:37:40;141926.34;;;14.96;62.28
788;BME280;16074;42.708;23.312;2022-10-31T01:40:09;141956.56;;;15.09;62.28
788;BME280;16074;42.708;23.312;2022-10-31T01:42:37;141963.81;;;15.12;62.12
788;BME280;16074;42.708;23.312;2022-10-31T01:45:10;141988.03;;;15.22;61.94
788;BME280;16074;42.708;23.312;2022-10-31T01:47:41;141996.47;;;15.25;61.96
788;BME280;16074;42.708;23.312;2022-10-31T01:50:14;142002.59;;;15.28;62.09
788;BME280;16074;42.708;23.312;2022-10-31T01:52:47;142005.00;;;15.29;61.61
788;BME280;16074;42.708;23.312;2022-10-31T01:55:20;142011.03;;;15.31;61.07
788;BME280;16074;42.708;23.312;2022-10-31T01:57:55;141981.94;;;15.19;60.73
788;BME280;16074;42.708;23.312;2022-10-31T02:00:24;141986.78;;;15.21;61.16
788;BME280;16074;42.708;23.312;2022-10-31T02:02:53;141988.03;;;15.22;60.82
788;BME280;16074;42.708;23.312;2022-10-31T02:05:25;141994.03;;;15.24;60.97
788;BME280;16074;42.708;23.312;2022-10-31T02:07:58;142009.78;;;15.31;60.50
788;BME280;16074;42.708;23.312;2022-10-31T02:10:31;142002.59;;;15.28;60.31
788;BME280;16074;42.708;23.312;2022-10-31T02:13:03;141983.19;;;15.20;61.05
788;BME280;16074;42.708;23.312;2022-10-31T02:15:35;141974.69;;;15.16;60.80
788;BME280;16074;42.708;23.312;2022-10-31T02:18:05;141960.19;;;15.10;61.70
788;BME280;16074;42.708;23.312;2022-10-31T02:20:40;141946.88;;;15.05;61.96
788;BME280;16074;42.708;23.312;2022-10-31T02:23:25;141954.16;;;15.08;61.98
788;BME280;16074;42.708;23.312;2022-10-31T02:26:12;141957.75;;;15.09;62.02
788;BME280;16074;42.708;23.312;2022-10-31T02:29:00;141960.19;;;15.10;62.12
788;BME280;16074;42.708;23.312;2022-10-31T02:31:38;141971.09;;;15.15;62.07
788;BME280;16074;42.708;23.312;2022-10-31T02:34:16;141971.09;;;15.15;62.04
788;BME280;16074;42.708;23.312;2022-10-31T02:36:53;141956.56;;;15.09;62.04
788;BME280;16074;42.708;23.312;2022-10-31T02:39:26;141954.16;;;15.08;62.49
788;BME280;16074;42.708;23.312;2022-10-31T02:42:02;141955.34;;;15.08;62.42
788;BME280;16074;42.708;23.312;2022-10-31T02:44:36;141942.06;;;15.03;62.43
788;BME280;16074;42.708;23.312;2022-10-31T02:47:12;141929.97;;;14.98;62.55
788;BME280;16074;42.708;23.312;2022-10-31T02:49:47;141920.28;;;14.94;62.79
788;BME280;16074;42.708;23.312;2022-10-31T02:52:18;141916.69;;;14.92;62.55
788;BME280;16074;42.708;23.312;2022-10-31T02:54:47;141899.75;;;14.85;62.82
788;BME280;16074;42.708;23.312;2022-10-31T02:57:18;141891.25;;;14.82;63.12
788;BME280;16074;42.708;23.312;2022-10-31T02:59:51;141884.00;;;14.79;63.04
788;BME280;16074;42.708;23.312;2022-10-31T03:02:37;141875.56;;;14.75;63.40
788;BME280;16074;42.708;23.312;2022-10-31T03:05:17;141867.13;;;14.72;63.60
788;BME280;16074;42.708;23.312;2022-10-31T03:07:57;141858.63;;;14.68;63.44
788;BME280;16074;42.708;23.312;2022-10-31T03:10:35;141851.38;;;14.65;63.49
788;BME280;16074;42.708;23.312;2022-10-31T03:13:09;141840.53;;;14.61;63.88
788;BME280;16074;42.708;23.312;2022-10-31T03:15:42;141841.72;;;14.61;64.06
788;BME280;16074;42.708;23.312;2022-10-31T03:18:16;141846.53;;;14.63;64.31
788;BME280;16074;42.708;23.312;2022-10-31T03:20:51;141841.72;;;14.61;64.72
788;BME280;16074;42.708;23.312;2022-10-31T03:23:23;141833.28;;;14.58;64.57
788;BME280;16074;42.708;23.312;2022-10-31T03:25:53;141790.97;;;14.40;64.71
788;BME280;16074;42.708;23.312;2022-10-31T03:28:30;141787.34;;;14.39;65.30
788;BME280;16074;42.708;23.312;2022-10-31T03:31:02;141794.59;;;14.42;65.62
788;BME280;16074;42.708;23.312;2022-10-31T03:33:39;141786.16;;;14.38;65.57
788;BME280;16074;42.708;23.312;2022-10-31T03:36:10;141777.66;;;14.35;65.71
788;BME280;16074;42.708;23.312;2022-10-31T03:38:41;141757.13;;;14.27;66.33
788;BME280;16074;42.708;23.312;2022-10-31T03:41:13;141766.81;;;14.31;66.16
788;BME280;16074;42.708;23.312;2022-10-31T03:43:49;141765.56;;;14.30;66.04
788;BME280;16074;42.708;23.312;2022-10-31T03:46:22;141761.97;;;14.29;66.50
788;BME280;16074;42.708;23.312;2022-10-31T03:48:56;141741.41;;;14.20;67.05
788;BME280;16074;42.708;23.312;2022-10-31T03:51:27;141743.81;;;14.21;66.83
788;BME280;16074;42.708;23.312;2022-10-31T03:54:08;141725.72;;;14.14;67.19
788;BME280;16074;42.708;23.312;2022-10-31T03:56:42;141700.31;;;14.03;68.01
788;BME280;16074;42.708;23.312;2022-10-31T03:59:16;141701.50;;;14.04;68.00
788;BME280;16074;42.708;23.312;2022-10-31T04:01:48;141683.41;;;13.96;68.24
788;BME280;16074;42.708;23.312;2022-10-31T04:04:21;141685.81;;;13.97;68.54
788;BME280;16074;42.708;23.312;2022-10-31T04:06:50;141685.81;;;13.97;68.76
788;BME280;16074;42.708;23.312;2022-10-31T04:09:20;141683.41;;;13.96;68.45
788;BME280;16074;42.708;23.312;2022-10-31T04:11:51;141678.56;;;13.94;68.73
788;BME280;16074;42.708;23.312;2022-10-31T04:14:43;141685.81;;;13.97;68.81
788;BME280;16074;42.708;23.312;2022-10-31T04:17:15;141697.91;;;14.02;68.72
788;BME280;16074;42.708;23.312;2022-10-31T04:19:45;141709.97;;;14.07;68.92
788;BME280;16074;42.708;23.312;2022-10-31T04:22:14;141714.81;;;14.09;68.64
788;BME280;16074;42.708;23.312;2022-10-31T04:24:42;141726.94;;;14.14;68.82
788;BME280;16074;42.708;23.312;2022-10-31T04:27:13;141732.97;;;14.17;68.83
788;BME280;16074;42.708;23.312;2022-10-31T04:29:42;141739.00;;;14.19;68.82
788;BME280;16074;42.708;23.312;2022-10-31T04:32:16;141753.50;;;14.25;68.17
788;BME280;16074;42.708;23.312;2022-10-31T04:34:45;141751.06;;;14.24;68.68
788;BME280;16074;42.708;23.312;2022-10-31T04:37:13;141760.75;;;14.28;68.82
788;BME280;16074;42.708;23.312;2022-10-31T04:39:42;141745.06;;;14.22;69.16
788;BME280;16074;42.708;23.312;2022-10-31T04:42:29;141731.78;;;14.16;68.98
788;BME280;16074;42.708;23.312;2022-10-31T04:45:01;141712.41;;;14.08;69.56
788;BME280;16074;42.708;23.312;2022-10-31T04:47:31;141717.25;;;14.10;69.60
788;BME280;16074;42.708;23.312;2022-10-31T04:50:02;141716.00;;;14.10;69.49
788;BME280;16074;42.708;23.312;2022-10-31T04:52:32;141700.31;;;14.03;69.52
788;BME280;16074;42.708;23.312;2022-10-31T04:55:01;141714.81;;;14.09;69.86
788;BME280;16074;42.708;23.312;2022-10-31T04:57:50;141726.94;;;14.14;69.83
788;BME280;16074;42.708;23.312;2022-10-31T05:00:20;141732.97;;;14.17;70.22
788;BME280;16074;42.708;23.312;2022-10-31T05:02:51;141725.72;;;14.14;70.23
788;BME280;16074;42.708;23.312;2022-10-31T05:05:23;141732.97;;;14.17;70.08
788;BME280;16074;42.708;23.312;2022-10-31T05:07:52;141707.56;;;14.06;70.17
788;BME280;16074;42.708;23.312;2022-10-31T05:10:24;141680.97;;;13.95;70.08
788;BME280;16074;42.708;23.312;2022-10-31T05:12:56;141661.66;;;13.87;70.11
788;BME280;16074;42.708;23.312;2022-10-31T05:15:44;141655.63;;;13.85;70.07
788;BME280;16074;42.708;23.312;2022-10-31T05:18:31;141656.81;;;13.85;70.58
788;BME280;16074;42.708;23.312;2022-10-31T05:21:19;141652.00;;;13.83;70.86
788;BME280;16074;42.708;23.312;2022-10-31T05:23:51;141644.75;;;13.80;71.11
788;BME280;16074;42.708;23.312;2022-10-31T05:26:21;141658.03;;;13.86;70.80
788;BME280;16074;42.708;23.312;2022-10-31T05:28:50;141647.16;;;13.81;71.06
788;BME280;16074;42.708;23.312;2022-10-31T05:31:19;141629.06;;;13.74;71.30
788;BME280;16074;42.708;23.312;2022-10-31T05:33:48;141610.91;;;13.66;71.14
788;BME280;16074;42.708;23.312;2022-10-31T05:36:36;141610.91;;;13.66;71.24
788;BME280;16074;42.708;23.312;2022-10-31T05:39:25;141604.91;;;13.64;71.60
788;BME280;16074;42.708;23.312;2022-10-31T05:41:58;141597.66;;;13.61;71.48
788;BME280;16074;42.708;23.312;2022-10-31T05:44:26;141579.56;;;13.53;71.84
788;BME280;16074;42.708;23.312;2022-10-31T05:47:17;141569.88;;;13.49;72.19
788;BME280;16074;42.708;23.312;2022-10-31T05:49:54;141556.59;;;13.44;72.17
788;BME280;16074;42.708;23.312;2022-10-31T05:52:24;141568.66;;;13.49;72.03
788;BME280;16074;42.708;23.312;2022-10-31T05:55:00;141571.06;;;13.50;71.85
788;BME280;16074;42.708;23.312;2022-10-31T05:57:29;141588.00;;;13.57;71.92
788;BME280;16074;42.708;23.312;2022-10-31T05:59:57;141610.91;;;13.66;71.71
788;BME280;16074;42.708;23.312;2022-10-31T06:02:26;141637.47;;;13.77;71.54
788;BME280;16074;42.708;23.312;2022-10-31T06:05:20;141656.81;;;13.85;70.75
788;BME280;16074;42.708;23.312;2022-10-31T06:07:51;141697.91;;;14.02;70.87
788;BME280;16074;42.708;23.312;2022-10-31T06:10:19;141753.50;;;14.25;69.17
788;BME280;16074;42.708;23.312;2022-10-31T06:12:52;141797.00;;;14.43;68.41
788;BME280;16074;42.708;23.312;2022-10-31T06:15:28;141823.59;;;14.54;67.18
788;BME280;16074;42.708;23.312;2022-10-31T06:17:58;141874.34;;;14.75;66.53
788;BME280;16074;42.708;23.312;2022-10-31T06:20:30;141927.53;;;14.97;65.79
788;BME280;16074;42.708;23.312;2022-10-31T06:23:03;141949.31;;;15.06;64.63
788;BME280;16074;42.708;23.312;2022-10-31T06:25:33;142030.38;;;15.39;64.45
788;BME280;16074;42.708;23.312;2022-10-31T06:28:03;142082.38;;;15.60;63.55
788;BME280;16074;42.708;23.312;2022-10-31T06:30:48;142159.81;;;15.92;62.83
788;BME280;16074;42.708;23.312;2022-10-31T06:33:16;142231.19;;;16.22;61.77
788;BME280;16074;42.708;23.312;2022-10-31T06:35:54;142285.72;;;16.44;60.48
788;BME280;16074;42.708;23.312;2022-10-31T06:38:25;142372.91;;;16.80;59.82
788;BME280;16074;42.708;23.312;2022-10-31T06:40:53;142437.13;;;17.06;58.71
788;BME280;16074;42.708;23.312;2022-10-31T06:43:25;142497.69;;;17.31;57.78
788;BME280;16074;42.708;23.312;2022-10-31T06:46:23;142537.72;;;17.48;56.39
788;BME280;16074;42.708;23.312;2022-10-31T06:49:20;142593.44;;;17.71;55.74
788;BME280;16074;42.708;23.312;2022-10-31T06:51:53;142666.19;;;18.00;54.62
788;BME280;16074;42.708;23.312;2022-10-31T06:54:22;142718.31;;;18.22;53.60
788;BME280;16074;42.708;23.312;2022-10-31T06:56:51;142778.97;;;18.47;52.76
788;BME280;16074;42.708;23.312;2022-10-31T06:59:19;142822.66;;;18.65;52.57
788;BME280;16074;42.708;23.312;2022-10-31T07:02:13;142882.09;;;18.89;52.89
788;BME280;16074;42.708;23.312;2022-10-31T07:04:42;142961.00;;;19.22;51.78
788;BME280;16074;42.708;23.312;2022-10-31T07:07:15;142997.44;;;19.36;52.02
788;BME280;16074;42.708;23.312;2022-10-31T07:09:45;143094.53;;;19.76;50.61
788;BME280;16074;42.708;23.312;2022-10-31T07:12:16;143156.50;;;20.02;50.69
788;BME280;16074;42.708;23.312;2022-10-31T07:14:53;143235.44;;;20.34;49.19
788;BME280;16074;42.708;23.312;2022-10-31T07:17:23;143280.38;;;20.52;48.98
788;BME280;16074;42.708;23.312;2022-10-31T07:19:58;143355.78;;;20.83;47.72
788;BME280;16074;42.708;23.312;2022-10-31T07:22:32;143387.34;;;20.96;47.03
788;BME280;16074;42.708;23.312;2022-10-31T07:25:02;143483.38;;;21.36;46.66
788;BME280;16074;42.708;23.312;2022-10-31T07:27:49;143457.88;;;21.25;46.30
788;BME280;16074;42.708;23.312;2022-10-31T07:30:18;143429.94;;;21.14;46.51
788;BME280;16074;42.708;23.312;2022-10-31T07:32:50;143442.09;;;21.19;46.78
788;BME280;16074;42.708;23.312;2022-10-31T07:35:20;143450.59;;;21.22;47.08
788;BME280;16074;42.708;23.312;2022-10-31T07:37:56;143500.41;;;21.43;46.30
788;BME280;16074;42.708;23.312;2022-10-31T07:40:26;143533.22;;;21.56;46.27
788;BME280;16074;42.708;23.312;2022-10-31T07:42:57;143598.97;;;21.83;45.51
788;BME280;16074;42.708;23.312;2022-10-31T07:46:04;143642.78;;;22.01;45.81
788;BME280;16074;42.708;23.312;2022-10-31T07:48:35;143646.41;;;22.02;45.10
788;BME280;16074;42.708;23.312;2022-10-31T07:51:22;143736.47;;;22.39;44.83
788;BME280;16074;42.708;23.312;2022-10-31T07:54:09;143775.41;;;22.55;44.36
788;BME280;16074;42.708;23.312;2022-10-31T07:56:39;143727.97;;;22.36;44.69
788;BME280;16074;42.708;23.312;2022-10-31T07:59:08;143842.38;;;22.83;43.83
788;BME280;16074;42.708;23.312;2022-10-31T08:01:36;143877.66;;;22.97;43.65
788;BME280;16074;42.708;23.312;2022-10-31T08:04:24;143909.38;;;23.10;42.99
788;BME280;16074;42.708;23.312;2022-10-31T08:07:11;143939.84;;;23.22;43.19
788;BME280;16074;42.708;23.312;2022-10-31T08:09:44;143964.16;;;23.32;42.76
788;BME280;16074;42.708;23.312;2022-10-31T08:12:24;143990.94;;;23.43;42.84
788;BME280;16074;42.708;23.312;2022-10-31T08:14:53;143942.22;;;23.23;42.86
788;BME280;16074;42.708;23.312;2022-10-31T08:17:21;143992.19;;;23.44;43.11
788;BME280;16074;42.708;23.312;2022-10-31T08:19:57;143981.22;;;23.39;42.94
788;BME280;16074;42.708;23.312;2022-10-31T08:22:38;144071.38;;;23.76;41.56
788;BME280;16074;42.708;23.312;2022-10-31T08:25:09;144104.31;;;23.90;41.86
788;BME280;16074;42.708;23.312;2022-10-31T08:27:39;144094.56;;;23.86;42.14
788;BME280;16074;42.708;23.312;2022-10-31T08:30:15;144095.75;;;23.86;42.71
788;BME280;16074;42.708;23.312;2022-10-31T08:32:58;144198.13;;;24.28;41.70
788;BME280;16074;42.708;23.312;2022-10-31T08:35:46;144271.28;;;24.58;40.66
788;BME280;16074;42.708;23.312;2022-10-31T08:38:40;144227.34;;;24.40;41.01
788;BME280;16074;42.708;23.312;2022-10-31T08:41:11;144206.66;;;24.31;41.27
788;BME280;16074;42.708;23.312;2022-10-31T08:43:41;144209.09;;;24.32;41.29
788;BME280;16074;42.708;23.312;2022-10-31T08:46:10;144114.06;;;23.94;41.66
788;BME280;16074;42.708;23.312;2022-10-31T08:48:40;144177.38;;;24.19;41.37
788;BME280;16074;42.708;23.312;2022-10-31T08:51:10;144115.25;;;23.94;41.41
788;BME280;16074;42.708;23.312;2022-10-31T08:53:38;144068.94;;;23.75;42.24
788;BME280;16074;42.708;23.312;2022-10-31T08:56:29;144143.31;;;24.06;42.04
788;BME280;16074;42.708;23.312;2022-10-31T08:59:00;144194.44;;;24.26;41.83
788;BME280;16074;42.708;23.312;2022-10-31T09:01:44;144303.00;;;24.71;40.88
788;BME280;16074;42.708;23.312;2022-10-31T09:04:13;144374.94;;;25.00;40.45
788;BME280;16074;42.708;23.312;2022-10-31T09:06:42;144426.22;;;25.21;40.48
788;BME280;16074;42.708;23.312;2022-10-31T09:09:30;144459.16;;;25.35;39.54
788;BME280;16074;42.708;23.312;2022-10-31T09:11:59;144521.34;;;25.60;39.43
788;BME280;16074;42.708;23.312;2022-10-31T09:14:46;144549.41;;;25.71;39.27
788;BME280;16074;42.708;23.312;2022-10-31T09:17:23;144636.09;;;26.07;39.50
788;BME280;16074;42.708;23.312;2022-10-31T09:20:18;144666.59;;;26.19;38.97
788;BME280;16074;42.708;23.312;2022-10-31T09:22:47;144686.13;;;26.27;37.89
788;BME280;16074;42.708;23.312;2022-10-31T09:25:15;144677.59;;;26.24;38.64
788;BME280;16074;42.708;23.312;2022-10-31T09:27:49;144721.53;;;26.42;38.02
788;BME280;16074;42.708;23.312;2022-10-31T09:30:19;144525.00;;;25.61;38.86
788;BME280;16074;42.708;23.312;2022-10-31T09:32:48;144546.97;;;25.70;39.70
788;BME280;16074;42.708;23.312;2022-10-31T09:35:22;144636.09;;;26.07;39.03
788;BME280;16074;42.708;23.312;2022-10-31T09:37:54;144726.41;;;26.44;38.48
788;BME280;16074;42.708;23.312;2022-10-31T09:40:29;144816.84;;;26.80;37.58
788;BME280;16074;42.708;23.312;2022-10-31T09:43:04;144825.38;;;26.84;37.34
788;BME280;16074;42.708;23.312;2022-10-31T09:45:41;144785.06;;;26.68;37.40
788;BME280;16074;42.708;23.312;2022-10-31T09:48:34;144847.34;;;26.93;37.29
788;BME280;16074;42.708;23.312;2022-10-31T09:51:20;144923.09;;;27.24;36.43
788;BME280;16074;42.708;23.312;2022-10-31T09:54:02;144997.63;;;27.54;36.47
788;BME280;16074;42.708;23.312;2022-10-31T09:56:33;145055.13;;;27.78;35.39
788;BME280;16074;42.708;23.312;2022-10-31T09:59:04;145094.25;;;27.94;35.40
788;BME280;16074;42.708;23.312;2022-10-31T10:01:48;145110.16;;;28.00;35.48
788;BME280;16074;42.708;23.312;2022-10-31T10:04:31;145150.50;;;28.16;35.13
788;BME280;16074;42.708;23.312;2022-10-31T10:07:28;145203.09;;;28.38;34.52
788;BME280;16074;42.708;23.312;2022-10-31T10:10:24;145105.28;;;27.98;35.00
788;BME280;16074;42.708;23.312;2022-10-31T10:13:27;145097.94;;;27.95;34.90
788;BME280;16074;42.708;23.312;2022-10-31T10:16:10;144924.34;;;27.24;35.77
788;BME280;16074;42.708;23.312;2022-10-31T10:18:55;145020.88;;;27.64;35.14
788;BME280;16074;42.708;23.312;2022-10-31T10:21:36;145013.56;;;27.61;35.85
788;BME280;16074;42.708;23.312;2022-10-31T10:24:17;145033.16;;;27.69;34.99
788;BME280;16074;42.708;23.312;2022-10-31T10:26:53;145073.47;;;27.85;34.96
788;BME280;16074;42.708;23.312;2022-10-31T10:29:32;144934.13;;;27.28;35.56
788;BME280;16074;42.708;23.312;2022-10-31T10:32:08;145039.25;;;27.71;34.77
788;BME280;16074;42.708;23.312;2022-10-31T10:34:44;145061.25;;;27.80;34.75
788;BME280;16074;42.708;23.312;2022-10-31T10:37:22;145118.69;;;28.03;34.61
788;BME280;16074;42.708;23.312;2022-10-31T10:39:56;145190.88;;;28.33;34.32
788;BME280;16074;42.708;23.312;2022-10-31T10:42:26;145244.69;;;28.55;33.98
788;BME280;16074;42.708;23.312;2022-10-31T10:45:17;145316.84;;;28.84;33.41
788;BME280;16074;42.708;23.312;2022-10-31T10:48:08;145364.59;;;29.04;32.74
788;BME280;16074;42.708;23.312;2022-10-31T10:50:44;145412.28;;;29.23;32.34
788;BME280;16074;42.708;23.312;2022-10-31T10:53:26;145444.13;;;29.36;31.96
788;BME280;16074;42.708;23.312;2022-10-31T10:56:13;145505.31;;;29.61;32.15
788;BME280;16074;42.708;23.312;2022-10-31T10:58:43;145543.25;;;29.76;32.04
788;BME280;16074;42.708;23.312;2022-10-31T11:01:13;145591.03;;;29.96;31.27
788;BME280;16074;42.708;23.312;2022-10-31T11:03:46;145594.69;;;29.97;31.34
788;BME280;16074;42.708;23.312;2022-10-31T11:06:21;145605.78;;;30.02;31.40
788;BME280;16074;42.708;23.312;2022-10-31T11:08:53;145642.47;;;30.17;30.40
788;BME280;16074;42.708;23.312;2022-10-31T11:11:25;145703.72;;;30.42;29.90
788;BME280;16074;42.708;23.312;2022-10-31T11:14:00;145751.50;;;30.61;30.45
788;BME280;16074;42.708;23.312;2022-10-31T11:16:33;145810.34;;;30.85;29.98
788;BME280;16074;42.708;23.312;2022-10-31T11:19:09;145861.75;;;31.06;29.71
788;BME280;16074;42.708;23.312;2022-10-31T11:21:44;145859.31;;;31.05;29.37
788;BME280;16074;42.708;23.312;2022-10-31T11:24:21;145755.16;;;30.62;29.72
788;BME280;16074;42.708;23.312;2022-10-31T11:27:05;145678.00;;;30.31;29.90
788;BME280;16074;42.708;23.312;2022-10-31T11:29:39;145662.06;;;30.25;29.92
788;BME280;16074;42.708;23.312;2022-10-31T11:32:20;145653.50;;;30.21;30.60
788;BME280;16074;42.708;23.312;2022-10-31T11:34:52;145686.56;;;30.35;30.15
788;BME280;16074;42.708;23.312;2022-10-31T11:37:25;145729.41;;;30.52;30.39
788;BME280;16074;42.708;23.312;2022-10-31T11:39:55;145762.53;;;30.65;29.43
788;BME280;16074;42.708;23.312;2022-10-31T11:42:26;145726.97;;;30.51;29.77
788;BME280;16074;42.708;23.312;2022-10-31T11:44:56;145746.63;;;30.59;29.66
788;BME280;16074;42.708;23.312;2022-10-31T11:47:26;145747.88;;;30.59;29.87
788;BME280;16074;42.708;23.312;2022-10-31T11:49:56;145751.50;;;30.61;29.86
788;BME280;16074;42.708;23.312;2022-10-31T11:52:28;145762.53;;;30.65;29.73
788;BME280;16074;42.708;23.312;2022-10-31T11:55:00;145746.63;;;30.59;29.29
788;BME280;16074;42.708;23.312;2022-10-31T11:57:31;145695.13;;;30.38;29.88
788;BME280;16074;42.708;23.312;2022-10-31T12:00:00;145494.31;;;29.56;30.81
788;BME280;16074;42.708;23.312;2022-10-31T12:02:37;145546.94;;;29.78;31.15
788;BME280;16074;42.708;23.312;2022-10-31T12:05:08;145587.34;;;29.94;30.04
788;BME280;16074;42.708;23.312;2022-10-31T12:07:40;145599.63;;;29.99;30.25
788;BME280;16074;42.708;23.312;2022-10-31T12:10:11;145624.13;;;30.09;30.34
788;BME280;16074;42.708;23.312;2022-10-31T12:12:48;145649.81;;;30.20;30.16
788;BME280;16074;42.708;23.312;2022-10-31T12:15:37;145666.97;;;30.27;29.76
788;BME280;16074;42.708;23.312;2022-10-31T12:18:32;145610.63;;;30.04;30.26
788;BME280;16074;42.708;23.312;2022-10-31T12:21:18;145654.72;;;30.22;30.77
788;BME280;16074;42.708;23.312;2022-10-31T12:23:58;145703.72;;;30.42;30.09
788;BME280;16074;42.708;23.312;2022-10-31T12:26:34;145535.97;;;29.73;30.29
788;BME280;16074;42.708;23.312;2022-10-31T12:29:14;145580.00;;;29.91;30.77
788;BME280;16074;42.708;23.312;2022-10-31T12:31:55;145637.56;;;30.15;30.26
788;BME280;16074;42.708;23.312;2022-10-31T12:34:43;145626.56;;;30.10;30.49
788;BME280;16074;42.708;23.312;2022-10-31T12:37:25;145441.66;;;29.35;30.66
788;BME280;16074;42.708;23.312;2022-10-31T12:40:11;145462.50;;;29.43;31.34
788;BME280;16074;42.708;23.312;2022-10-31T12:42:51;145515.13;;;29.65;31.58
788;BME280;16074;42.708;23.312;2022-10-31T12:45:35;145571.44;;;29.88;30.81
788;BME280;16074;42.708;23.312;2022-10-31T12:51:10;145605.78;;;30.02;30.28
788;BME280;16074;42.708;23.312;2022-10-31T12:53:55;145556.75;;;29.82;30.43
788;BME280;16074;42.708;23.312;2022-10-31T12:56:36;145522.47;;;29.68;30.76
788;BME280;16074;42.708;23.312;2022-10-31T12:59:14;145499.22;;;29.58;30.49
788;BME280;16074;42.708;23.312;2022-10-31T13:01:48;145497.97;;;29.58;30.72
788;BME280;16074;42.708;23.312;2022-10-31T13:04:21;145550.59;;;29.79;30.58
788;BME280;16074;42.708;23.312;2022-10-31T13:06:56;145521.25;;;29.67;30.59
788;BME280;16074;42.708;23.312;2022-10-31T13:09:33;145542.06;;;29.76;30.80
788;BME280;16074;42.708;23.312;2022-10-31T13:12:07;145553.03;;;29.80;30.41
788;BME280;16074;42.708;23.312;2022-10-31T13:14:39;145518.81;;;29.66;30.71
788;BME280;16074;42.708;23.312;2022-10-31T13:17:14;145537.16;;;29.74;30.32
788;BME280;16074;42.708;23.312;2022-10-31T13:19:45;145409.84;;;29.22;30.94
788;BME280;16074;42.708;23.312;2022-10-31T13:22:17;145384.16;;;29.12;31.38
788;BME280;16074;42.708;23.312;2022-10-31T13:24:53;145359.69;;;29.02;31.17
788;BME280;16074;42.708;23.312;2022-10-31T13:27:29;145300.91;;;28.78;31.49
788;BME280;16074;42.708;23.312;2022-10-31T13:30:01;145286.22;;;28.72;31.60
788;BME280;16074;42.708;23.312;2022-10-31T13:32:37;145349.91;;;28.98;31.64
788;BME280;16074;42.708;23.312;2022-10-31T13:35:13;145368.25;;;29.05;31.31
788;BME280;16074;42.708;23.312;2022-10-31T13:37:46;145378.03;;;29.09;30.76
788;BME280;16074;42.708;23.312;2022-10-31T13:40:29;145411.03;;;29.23;31.11
788;BME280;16074;42.708;23.312;2022-10-31T13:43:07;145449.00;;;29.38;30.78